Time;durP1;ratioP1;P1;durP2;ratioP2;P2;SDS_P1;SDS_P2;PMS_P1;PMS_P2;Temp;Humidity;BMP_temperature;BMP_pressure;BME280_temperature;BME280_humidity;BME280_pressure;Samples;Min_cycle;Max_cycle;Signal;HPM_P1;HPM_P2
2023/01/08 00:01:32;;;;;;;8.90;5.63;;;0.50;99.90;;;;;;5061135;28;20033;-41
2023/01/08 00:03:58;;;;;;;6.32;4.38;;;0.60;99.90;;;;;;5068446;28;20029;-40
2023/01/08 00:06:24;;;;;;;8.05;5.20;;;0.70;99.90;;;;;;5057594;28;20124;-39
2023/01/08 00:08:50;;;;;;;4.60;3.83;;;0.60;99.90;;;;;;5067795;28;20375;-41
2023/01/08 00:11:16;;;;;;;8.60;6.10;;;0.60;99.90;;;;;;5053647;28;20025;-40
2023/01/08 00:13:42;;;;;;;5.03;4.45;;;0.60;99.90;;;;;;5054245;28;20064;-39
2023/01/08 00:16:10;;;;;;;3.38;2.63;;;0.50;99.90;;;;;;5056196;28;20048;-38
2023/01/08 00:18:36;;;;;;;6.47;3.80;;;0.40;99.90;;;;;;5059273;28;20036;-37
2023/01/08 00:21:03;;;;;;;4.60;3.85;;;0.30;99.90;;;;;;5053786;28;20033;-41
2023/01/08 00:23:29;;;;;;;5.57;4.20;;;0.30;99.90;;;;;;5060373;28;20482;-39
2023/01/08 00:25:54;;;;;;;5.35;3.72;;;0.30;99.90;;;;;;5055503;28;20120;-42
2023/01/08 00:28:20;;;;;;;7.05;4.65;;;0.20;99.90;;;;;;5073572;28;20036;-42
2023/01/08 00:30:47;;;;;;;3.97;3.63;;;0.00;99.90;;;;;;5057558;28;20028;-38
2023/01/08 00:33:12;;;;;;;4.30;3.50;;;0.10;99.90;;;;;;5059713;28;20032;-42
2023/01/08 00:35:39;;;;;;;5.32;3.88;;;0.10;99.90;;;;;;5058318;28;20082;-40
2023/01/08 00:38:05;;;;;;;5.55;3.30;;;0.20;99.90;;;;;;5056946;28;20494;-38
2023/01/08 00:40:33;;;;;;;4.43;3.60;;;0.30;99.90;;;;;;5054217;28;20028;-42
2023/01/08 00:42:59;;;;;;;5.90;4.32;;;0.30;99.90;;;;;;5056365;28;20032;-42
2023/01/08 00:45:24;;;;;;;5.88;4.43;;;0.20;99.90;;;;;;5058201;28;20043;-41
2023/01/08 00:47:50;;;;;;;2.67;2.25;;;0.30;99.90;;;;;;5055337;28;20048;-39
2023/01/08 00:50:16;;;;;;;4.50;3.85;;;0.20;99.90;;;;;;5056173;28;20085;-41
2023/01/08 00:52:41;;;;;;;5.03;4.43;;;0.20;99.90;;;;;;5055568;28;20028;-41
2023/01/08 00:55:07;;;;;;;6.80;4.40;;;0.20;99.90;;;;;;5056495;28;20028;-41
2023/01/08 00:57:37;;;;;;;3.47;3.25;;;0.10;99.90;;;;;;5057761;28;20519;-41
2023/01/08 01:00:05;;;;;;;5.05;4.18;;;0.10;99.90;;;;;;5057379;28;20036;-41
2023/01/08 01:02:31;;;;;;;3.80;3.38;;;0.00;99.90;;;;;;5055735;28;20044;-42
2023/01/08 01:04:56;;;;;;;6.72;3.90;;;0.10;99.90;;;;;;5058051;28;20032;-40
2023/01/08 01:07:22;;;;;;;6.38;3.47;;;0.20;99.90;;;;;;5068580;28;20574;-41
2023/01/08 01:09:48;;;;;;;6.53;3.55;;;0.20;99.90;;;;;;5061781;28;20033;-38
2023/01/08 01:12:13;;;;;;;5.20;3.55;;;0.20;99.90;;;;;;5062831;28;20036;-42
2023/01/08 01:14:39;;;;;;;3.97;3.40;;;0.20;99.90;;;;;;5058117;28;20032;-39
2023/01/08 01:17:05;;;;;;;5.35;3.55;;;0.10;99.90;;;;;;5057848;28;20600;-42
2023/01/08 01:19:31;;;;;;;5.97;3.67;;;0.20;99.90;;;;;;5060662;28;20441;-41
2023/01/08 01:21:56;;;;;;;4.55;3.28;;;0.10;99.90;;;;;;5060270;28;20028;-36
2023/01/08 01:24:23;;;;;;;3.30;2.10;;;0.10;99.90;;;;;;5059173;28;20083;-40
2023/01/08 01:26:50;;;;;;;2.17;1.98;;;0.00;99.90;;;;;;5054354;28;20124;-41
2023/01/08 01:29:16;;;;;;;4.75;3.75;;;-0.20;99.90;;;;;;5052710;28;20521;-42
2023/01/08 01:31:42;;;;;;;11.50;4.00;;;-0.40;99.90;;;;;;5054008;28;20044;-36
2023/01/08 01:34:08;;;;;;;2.67;2.50;;;-0.40;99.90;;;;;;5056107;28;20398;-37
2023/01/08 01:36:34;;;;;;;5.22;3.83;;;-0.30;99.90;;;;;;5052863;28;20306;-38
2023/01/08 01:39:00;;;;;;;5.93;3.83;;;-0.40;99.90;;;;;;5056802;28;20064;-34
2023/01/08 01:41:30;;;;;;;2.78;2.55;;;-0.30;99.90;;;;;;5057305;28;20066;-39
2023/01/08 01:43:58;;;;;;;2.75;2.55;;;-0.40;99.90;;;;;;5060412;28;20043;-41
2023/01/08 01:46:37;;;;;;;4.50;4.07;;;-0.50;99.90;;;;;;5061405;28;20044;-39
2023/01/08 01:49:08;;;;;;;4.43;3.88;;;-0.50;99.90;;;;;;5064285;28;20020;-40
2023/01/08 01:51:35;;;;;;;5.93;3.55;;;-0.30;99.90;;;;;;5055328;28;20470;-39
2023/01/08 01:54:04;;;;;;;5.85;2.90;;;-0.40;99.90;;;;;;5060049;28;20020;-41
2023/01/08 01:56:31;;;;;;;7.60;4.35;;;-0.40;99.90;;;;;;5061065;28;20112;-42
2023/01/08 01:58:56;;;;;;;5.47;3.47;;;-0.40;99.90;;;;;;5063177;28;20020;-36
2023/01/08 02:01:23;;;;;;;4.97;4.18;;;-0.50;99.90;;;;;;5061781;28;20881;-37
2023/01/08 02:03:49;;;;;;;4.65;2.78;;;-0.40;99.90;;;;;;5063524;28;20134;-40
2023/01/08 02:06:38;;;;;;;5.43;3.47;;;-0.40;99.90;;;;;;5061654;28;20131;-40
2023/01/08 02:09:13;;;;;;;1.95;1.85;;;-0.40;99.90;;;;;;5065693;28;20072;-41
2023/01/08 02:12:15;;;;;;;4.10;3.70;;;-0.40;99.90;;;;;;5064582;28;20028;-39
2023/01/08 02:14:44;;;;;;;2.15;2.00;;;-0.50;99.90;;;;;;5063448;28;20470;-41
2023/01/08 02:17:15;;;;;;;1.30;1.23;;;-0.50;99.90;;;;;;5065527;28;20024;-42
2023/01/08 02:19:50;;;;;;;3.22;2.50;;;-0.70;99.90;;;;;;5067937;28;20482;-36
2023/01/08 02:22:30;;;;;;;5.95;2.65;;;-0.70;99.90;;;;;;5062259;28;20063;-42
2023/01/08 02:25:28;;;;;;;2.28;2.17;;;-0.70;99.90;;;;;;5061309;28;20112;-37
2023/01/08 02:27:55;;;;;;;3.20;2.90;;;-0.80;99.90;;;;;;5017903;28;20041;-39
2023/01/08 02:30:22;;;;;;;1.75;1.65;;;-0.70;99.90;;;;;;5060781;28;20025;-41
2023/01/08 02:32:47;;;;;;;2.35;1.85;;;-0.80;99.90;;;;;;5049162;28;20114;-39
2023/01/08 02:35:13;;;;;;;6.43;4.15;;;-0.90;99.90;;;;;;5045758;28;20028;-42
2023/01/08 02:37:39;;;;;;;5.38;3.15;;;-0.80;99.90;;;;;;5042986;28;20037;-41
2023/01/08 02:40:14;;;;;;;3.58;3.33;;;-0.70;99.90;;;;;;5045759;28;20037;-42
2023/01/08 02:42:45;;;;;;;2.88;2.35;;;-0.50;99.90;;;;;;5044968;28;20029;-36
2023/01/08 02:45:24;;;;;;;2.45;2.33;;;-0.60;99.90;;;;;;5045696;28;20049;-36
2023/01/08 02:48:13;;;;;;;4.60;3.35;;;-0.60;99.90;;;;;;5044309;28;20670;-39
2023/01/08 02:50:48;;;;;;;2.67;2.50;;;-0.50;99.90;;;;;;5049183;28;20040;-42
2023/01/08 02:53:21;;;;;;;2.17;2.03;;;-0.50;99.90;;;;;;5042469;28;20124;-40
2023/01/08 02:55:58;;;;;;;3.25;2.67;;;-0.50;99.90;;;;;;5045244;28;20033;-42
2023/01/08 02:58:28;;;;;;;9.18;3.05;;;-0.50;99.90;;;;;;5046969;28;20410;-43
2023/01/08 03:00:54;;;;;;;3.63;2.42;;;-0.50;99.90;;;;;;5048793;28;20052;-40
2023/01/08 03:03:26;;;;;;;7.25;4.78;;;-0.50;99.90;;;;;;5065236;28;20041;-40
2023/01/08 03:05:56;;;;;;;2.30;1.88;;;-0.50;99.90;;;;;;5066779;28;20524;-36
2023/01/08 03:08:23;;;;;;;3.45;3.15;;;-0.70;99.90;;;;;;5064935;28;20040;-39
2023/01/08 03:11:22;;;;;;;3.78;3.47;;;-0.80;99.90;;;;;;5066908;28;20123;-41
2023/01/08 03:14:16;;;;;;;3.22;3.00;;;-0.80;99.90;;;;;;5053999;28;20040;-41
2023/01/08 03:16:46;;;;;;;2.33;1.75;;;-0.70;99.90;;;;;;5058241;28;20080;-38
2023/01/08 03:19:22;;;;;;;3.13;2.75;;;-0.80;99.90;;;;;;5067998;28;20074;-37
2023/01/08 03:21:49;;;;;;;3.40;2.78;;;-0.90;99.90;;;;;;5056811;28;20844;-38
2023/01/08 03:24:19;;;;;;;3.05;2.67;;;-0.90;99.90;;;;;;5066420;28;20020;-39
2023/01/08 03:26:47;;;;;;;3.30;2.72;;;-0.80;99.90;;;;;;5062205;28;20031;-41
2023/01/08 03:29:16;;;;;;;4.57;3.28;;;-0.70;99.90;;;;;;5066588;28;20082;-37
2023/01/08 03:31:43;;;;;;;2.78;2.58;;;-0.50;99.90;;;;;;5054654;28;20055;-42
2023/01/08 03:34:12;;;;;;;4.22;3.15;;;-0.60;99.90;;;;;;5045339;28;20036;-41
2023/01/08 03:36:40;;;;;;;3.35;3.05;;;-0.60;99.90;;;;;;5047475;28;20032;-35
2023/01/08 03:39:16;;;;;;;8.50;4.20;;;-0.50;99.90;;;;;;5049228;28;20033;-38
2023/01/08 03:41:41;;;;;;;3.72;3.30;;;-0.40;99.90;;;;;;5044137;28;20037;-39
2023/01/08 03:44:07;;;;;;;3.55;2.95;;;-0.40;99.90;;;;;;5046833;28;20024;-41
2023/01/08 03:46:37;;;;;;;2.47;2.38;;;-0.40;99.90;;;;;;5045431;28;20139;-39
2023/01/08 03:49:06;;;;;;;3.95;3.58;;;-0.60;99.90;;;;;;5044904;28;20143;-42
2023/01/08 03:51:42;;;;;;;5.55;3.97;;;-0.60;99.90;;;;;;5044769;28;20586;-39
2023/01/08 03:54:12;;;;;;;8.30;4.20;;;-0.50;99.90;;;;;;5046623;28;20033;-38
2023/01/08 03:56:38;;;;;;;4.00;3.60;;;-0.40;99.90;;;;;;5044863;28;20029;-41
2023/01/08 03:59:04;;;;;;;5.32;3.78;;;-0.40;99.90;;;;;;5046510;28;20033;-40
2023/01/08 04:01:29;;;;;;;3.95;3.50;;;-0.40;99.90;;;;;;5046836;28;20029;-42
2023/01/08 04:03:55;;;;;;;4.28;3.88;;;-0.30;99.90;;;;;;5044500;28;20056;-42
2023/01/08 04:06:20;;;;;;;5.13;2.92;;;-0.30;99.90;;;;;;5047574;28;20032;-38
2023/01/08 04:08:47;;;;;;;4.28;3.10;;;-0.30;99.90;;;;;;5049355;28;20036;-42
2023/01/08 04:11:12;;;;;;;5.00;3.47;;;-0.20;99.90;;;;;;5046237;28;20613;-42
2023/01/08 04:13:38;;;;;;;5.40;3.33;;;-0.10;99.90;;;;;;5047341;28;20060;-41
2023/01/08 04:16:04;;;;;;;7.20;3.65;;;-0.10;99.90;;;;;;5043564;28;20033;-38
2023/01/08 04:18:30;;;;;;;3.47;3.17;;;-0.10;99.90;;;;;;5045021;28;20037;-36
2023/01/08 04:20:56;;;;;;;3.20;2.97;;;-0.10;99.90;;;;;;5043775;28;20371;-38
2023/01/08 04:23:21;;;;;;;4.80;3.72;;;-0.10;99.90;;;;;;5045704;28;20040;-39
2023/01/08 04:25:47;;;;;;;3.20;2.90;;;-0.10;99.90;;;;;;5042635;28;20458;-42
2023/01/08 04:28:12;;;;;;;4.60;3.40;;;-0.10;99.90;;;;;;5049049;28;20542;-38
2023/01/08 04:30:38;;;;;;;4.38;3.47;;;0.00;99.90;;;;;;5046476;28;20033;-41
2023/01/08 04:33:04;;;;;;;7.38;3.70;;;-0.10;99.90;;;;;;5042755;28;20083;-40
2023/01/08 04:35:29;;;;;;;3.13;2.67;;;-0.20;99.90;;;;;;5045952;28;20544;-42
2023/01/08 04:37:55;;;;;;;2.65;2.53;;;-0.20;99.90;;;;;;5041863;28;20029;-37
2023/01/08 04:40:20;;;;;;;4.22;3.13;;;-0.30;99.90;;;;;;5044347;28;20040;-41
2023/01/08 04:42:46;;;;;;;8.20;3.55;;;-0.40;99.90;;;;;;5046640;28;20029;-34
2023/01/08 04:45:11;;;;;;;4.45;2.95;;;-0.40;99.90;;;;;;5042562;28;20837;-40
2023/01/08 04:47:37;;;;;;;4.05;3.20;;;-0.40;99.90;;;;;;5037820;28;20099;-41
2023/01/08 04:50:03;;;;;;;4.07;3.05;;;-0.30;99.90;;;;;;5045677;28;20029;-36
2023/01/08 04:52:28;;;;;;;4.50;3.50;;;-0.30;99.90;;;;;;5039322;28;20032;-40
2023/01/08 04:54:54;;;;;;;2.10;2.00;;;-0.30;99.90;;;;;;5041589;28;20091;-42
2023/01/08 04:57:19;;;;;;;2.72;2.25;;;-0.40;99.90;;;;;;5040932;28;20029;-41
2023/01/08 04:59:45;;;;;;;3.83;2.75;;;-0.50;99.90;;;;;;5043994;28;20512;-40
2023/01/08 05:02:11;;;;;;;3.88;3.17;;;-0.70;99.90;;;;;;5045830;28;20486;-39
2023/01/08 05:04:36;;;;;;;5.03;3.42;;;-0.60;99.90;;;;;;5043379;28;20140;-42
2023/01/08 05:07:03;;;;;;;4.25;3.85;;;-0.50;99.90;;;;;;5042906;28;20375;-41
2023/01/08 05:09:29;;;;;;;3.28;2.92;;;-0.40;99.90;;;;;;5047652;28;20401;-41
2023/01/08 05:11:54;;;;;;;4.13;3.20;;;-0.30;99.90;;;;;;5038759;28;20058;-41
2023/01/08 05:14:20;;;;;;;3.65;3.13;;;-0.20;99.90;;;;;;5046124;28;20390;-41
2023/01/08 05:16:46;;;;;;;4.40;2.55;;;-0.20;99.90;;;;;;5042190;28;20379;-36
2023/01/08 05:19:12;;;;;;;3.13;2.92;;;-0.30;99.90;;;;;;5048142;28;20040;-41
2023/01/08 05:21:37;;;;;;;3.47;2.65;;;-0.30;99.90;;;;;;5044337;28;20029;-41
2023/01/08 05:24:03;;;;;;;2.60;2.40;;;-0.40;99.90;;;;;;5044447;28;20051;-42
2023/01/08 05:26:29;;;;;;;3.72;3.08;;;-0.30;99.90;;;;;;5041784;28;20033;-42
2023/01/08 05:28:54;;;;;;;3.40;2.70;;;-0.30;99.90;;;;;;5048281;28;20025;-39
2023/01/08 05:31:20;;;;;;;4.15;3.25;;;-0.20;99.90;;;;;;5042066;28;20036;-35
2023/01/08 05:33:46;;;;;;;4.70;3.28;;;-0.10;99.90;;;;;;5042642;28;20061;-41
2023/01/08 05:36:12;;;;;;;2.90;2.65;;;-0.10;99.90;;;;;;5043780;28;20112;-40
2023/01/08 05:38:38;;;;;;;2.42;2.10;;;-0.20;99.90;;;;;;5045446;28;20033;-40
2023/01/08 05:41:04;;;;;;;3.22;2.20;;;-0.20;99.90;;;;;;5043844;28;20025;-42
2023/01/08 05:43:30;;;;;;;4.65;3.00;;;-0.20;99.90;;;;;;5043048;28;20079;-40
2023/01/08 05:45:59;;;;;;;6.20;2.47;;;-0.10;99.90;;;;;;5040063;28;20054;-40
2023/01/08 05:48:26;;;;;;;3.78;2.92;;;-0.20;99.90;;;;;;5037012;28;20095;-42
2023/01/08 05:50:52;;;;;;;3.00;2.70;;;-0.20;99.90;;;;;;5043839;28;20060;-41
2023/01/08 05:53:18;;;;;;;3.95;3.05;;;-0.20;99.90;;;;;;5046712;28;20056;-40
2023/01/08 05:55:44;;;;;;;2.83;2.55;;;-0.20;99.90;;;;;;5042356;28;20032;-42
2023/01/08 05:58:10;;;;;;;4.13;3.40;;;-0.20;99.90;;;;;;5047704;28;20087;-36
2023/01/08 06:00:37;;;;;;;2.70;2.50;;;-0.10;99.90;;;;;;5046091;28;20087;-42
2023/01/08 06:03:03;;;;;;;2.28;2.10;;;-0.10;99.90;;;;;;5044047;28;20055;-39
2023/01/08 06:05:31;;;;;;;3.80;3.33;;;-0.20;99.90;;;;;;5042061;28;20080;-41
2023/01/08 06:07:58;;;;;;;2.42;2.03;;;-0.20;99.90;;;;;;5043606;28;20033;-36
2023/01/08 06:10:27;;;;;;;4.07;3.15;;;-0.20;99.90;;;;;;5044427;28;20035;-41
2023/01/08 06:12:52;;;;;;;;;;;-0.10;99.90;;;;;;5039556;28;20079;-40
2023/01/08 06:15:18;;;;;;;2.25;2.05;;;-0.10;99.90;;;;;;5046139;28;19912;-41
2023/01/08 06:17:43;;;;;;;6.03;3.03;;;0.00;99.90;;;;;;5040766;28;20025;-42
2023/01/08 06:20:10;;;;;;;4.05;2.47;;;0.10;99.90;;;;;;5045617;28;20065;-42
2023/01/08 06:22:36;;;;;;;6.45;3.72;;;0.00;99.90;;;;;;5044083;28;20072;-42
2023/01/08 06:25:02;;;;;;;10.90;2.30;;;0.10;99.90;;;;;;5043782;28;20294;-41
2023/01/08 06:27:28;;;;;;;3.83;2.85;;;0.10;99.90;;;;;;5044096;28;20079;-37
2023/01/08 06:29:54;;;;;;;4.20;3.17;;;0.20;99.90;;;;;;5045088;28;20524;-42
2023/01/08 06:32:19;;;;;;;3.40;3.03;;;0.20;99.90;;;;;;5045685;28;20659;-36
2023/01/08 06:34:45;;;;;;;2.63;2.45;;;0.30;99.90;;;;;;5046599;28;20470;-37
2023/01/08 06:37:11;;;;;;;1.58;1.38;;;0.30;99.90;;;;;;5042215;28;20147;-39
2023/01/08 06:39:36;;;;;;;3.15;2.85;;;0.20;99.90;;;;;;5040066;28;20033;-38
2023/01/08 06:42:02;;;;;;;2.03;1.90;;;0.30;99.90;;;;;;5042830;28;20025;-41
2023/01/08 06:44:27;;;;;;;3.97;3.00;;;0.30;99.90;;;;;;5041552;28;20033;-39
2023/01/08 06:46:53;;;;;;;3.90;2.67;;;0.40;99.90;;;;;;5041061;28;20033;-36
2023/01/08 06:49:19;;;;;;;4.78;2.90;;;0.40;99.90;;;;;;5040993;28;20025;-41
2023/01/08 06:51:45;;;;;;;2.83;2.58;;;0.40;99.90;;;;;;5045034;28;20194;-42
2023/01/08 06:54:10;;;;;;;2.70;2.22;;;0.50;99.90;;;;;;5045840;28;20020;-37
2023/01/08 06:56:36;;;;;;;1.98;1.88;;;0.50;99.90;;;;;;5043903;28;20025;-42
2023/01/08 06:59:01;;;;;;;3.60;2.80;;;0.30;99.90;;;;;;5044316;28;20025;-35
2023/01/08 07:01:27;;;;;;;2.30;2.17;;;0.30;99.90;;;;;;5045771;28;20045;-42
2023/01/08 07:03:53;;;;;;;4.47;3.42;;;0.40;99.90;;;;;;5046447;28;20037;-34
2023/01/08 07:06:20;;;;;;;2.67;2.47;;;0.50;99.90;;;;;;5043227;28;20032;-37
2023/01/08 07:08:46;;;;;;;3.08;2.55;;;0.50;99.90;;;;;;5045731;28;20059;-37
2023/01/08 07:11:12;;;;;;;2.80;2.58;;;0.50;99.90;;;;;;5047681;28;20028;-39
2023/01/08 07:13:38;;;;;;;4.32;3.05;;;0.50;99.90;;;;;;5042105;28;20489;-41
2023/01/08 07:16:06;;;;;;;2.85;2.42;;;0.50;99.90;;;;;;5043378;28;20036;-42
2023/01/08 07:18:31;;;;;;;5.80;2.80;;;0.50;99.90;;;;;;5042478;28;20037;-41
2023/01/08 07:20:57;;;;;;;3.92;2.65;;;0.50;99.90;;;;;;5040452;28;20037;-39
2023/01/08 07:23:22;;;;;;;2.85;2.65;;;0.50;99.90;;;;;;5043946;28;20398;-41
2023/01/08 07:25:48;;;;;;;3.47;2.90;;;0.50;99.90;;;;;;5051119;28;20036;-41
2023/01/08 07:28:14;;;;;;;3.58;2.70;;;0.60;99.90;;;;;;5050483;28;20025;-38
2023/01/08 07:30:39;;;;;;;2.65;2.42;;;0.60;99.90;;;;;;5047415;28;20070;-43
2023/01/08 07:33:05;;;;;;;2.80;2.40;;;0.60;99.90;;;;;;5047107;28;20288;-40
2023/01/08 07:35:31;;;;;;;4.65;2.70;;;0.70;99.90;;;;;;5042081;28;20384;-41
2023/01/08 07:37:56;;;;;;;2.42;2.22;;;0.60;99.90;;;;;;5044297;28;20021;-37
2023/01/08 07:40:22;;;;;;;4.05;2.92;;;0.70;99.90;;;;;;5046189;28;20051;-41
2023/01/08 07:42:55;;;;;;;3.05;2.80;;;0.70;99.90;;;;;;5046094;28;20076;-35
2023/01/08 07:45:21;;;;;;;5.40;3.47;;;0.80;99.90;;;;;;5050395;28;20399;-42
2023/01/08 07:47:46;;;;;;;2.67;2.45;;;0.80;99.90;;;;;;5040118;28;20028;-41
2023/01/08 07:50:12;;;;;;;3.50;3.20;;;0.80;99.90;;;;;;5048712;28;20027;-42
2023/01/08 07:52:37;;;;;;;2.88;2.67;;;0.80;99.90;;;;;;5044981;28;20064;-39
2023/01/08 07:55:03;;;;;;;4.40;2.40;;;0.80;99.90;;;;;;5048389;28;20032;-41
2023/01/08 07:57:29;;;;;;;5.45;2.78;;;0.80;99.90;;;;;;5038757;28;20583;-36
2023/01/08 07:59:54;;;;;;;2.45;2.25;;;0.70;99.90;;;;;;5021788;28;20561;-36
2023/01/08 08:02:20;;;;;;;4.25;2.50;;;0.80;99.90;;;;;;5023048;28;20029;-41
2023/01/08 08:04:45;;;;;;;4.40;2.78;;;0.80;99.90;;;;;;5027192;28;20115;-39
2023/01/08 08:07:11;;;;;;;6.10;3.50;;;0.80;99.90;;;;;;5021702;28;20636;-35
2023/01/08 08:09:37;;;;;;;4.25;3.60;;;0.80;99.90;;;;;;5023745;28;20513;-41
2023/01/08 08:12:03;;;;;;;6.10;3.70;;;0.80;99.90;;;;;;5019834;28;20033;-33
2023/01/08 08:14:28;;;;;;;3.58;2.88;;;0.80;99.90;;;;;;5041069;28;20029;-41
2023/01/08 08:16:54;;;;;;;3.85;2.80;;;0.90;99.90;;;;;;5038019;28;20029;-40
2023/01/08 08:19:19;;;;;;;4.15;3.50;;;0.90;99.90;;;;;;5039363;28;20516;-42
2023/01/08 08:21:45;;;;;;;4.45;3.60;;;0.90;99.90;;;;;;5044793;28;20041;-39
2023/01/08 08:24:11;;;;;;;3.95;3.17;;;1.00;99.90;;;;;;5049300;28;20033;-36
2023/01/08 08:26:36;;;;;;;4.90;3.13;;;1.00;99.90;;;;;;5047122;28;20037;-36
2023/01/08 08:29:02;;;;;;;3.85;2.58;;;1.10;99.90;;;;;;5048832;28;20028;-40
2023/01/08 08:31:27;;;;;;;3.25;2.38;;;1.10;99.90;;;;;;5045167;28;20041;-39
2023/01/08 08:33:53;;;;;;;3.97;2.83;;;1.10;99.90;;;;;;5049486;28;20508;-38
2023/01/08 08:36:18;;;;;;;2.97;2.53;;;1.20;99.90;;;;;;5040267;28;20037;-36
2023/01/08 08:38:44;;;;;;;4.55;2.83;;;1.20;99.90;;;;;;5021897;28;20037;-34
2023/01/08 08:41:09;;;;;;;3.70;3.40;;;1.20;99.90;;;;;;5037957;28;20032;-36
2023/01/08 08:43:35;;;;;;;4.30;3.22;;;1.20;99.90;;;;;;5065452;28;20123;-39
2023/01/08 08:46:01;;;;;;;3.88;3.00;;;1.30;99.90;;;;;;5049048;28;20032;-39
2023/01/08 08:48:26;;;;;;;6.47;3.47;;;1.30;99.90;;;;;;5046221;28;20060;-40
2023/01/08 08:50:52;;;;;;;5.07;3.60;;;1.40;99.90;;;;;;5050146;28;20016;-40
2023/01/08 08:53:17;;;;;;;5.10;3.72;;;1.40;99.90;;;;;;5046374;28;20035;-34
2023/01/08 08:55:43;;;;;;;6.20;4.50;;;1.40;99.90;;;;;;5047628;28;20070;-34
2023/01/08 08:58:11;;;;;;;6.22;4.00;;;1.50;99.90;;;;;;5041502;28;20498;-40
2023/01/08 09:00:38;;;;;;;4.77;3.60;;;1.60;99.90;;;;;;5043323;28;20035;-38
2023/01/08 09:03:03;;;;;;;4.35;3.67;;;1.60;99.90;;;;;;5046318;28;20282;-41
2023/01/08 09:05:29;;;;;;;5.82;4.07;;;1.60;99.90;;;;;;5046416;28;20071;-40
2023/01/08 09:07:55;;;;;;;3.15;2.78;;;1.70;99.90;;;;;;5037241;28;20158;-36
2023/01/08 09:10:22;;;;;;;7.10;3.92;;;1.70;99.90;;;;;;5020982;28;20090;-39
2023/01/08 09:12:48;;;;;;;3.90;3.40;;;1.80;99.90;;;;;;5022104;28;20025;-34
2023/01/08 09:15:14;;;;;;;5.85;4.57;;;1.80;99.90;;;;;;5023477;28;20118;-40
2023/01/08 09:17:40;;;;;;;3.97;3.58;;;1.90;99.90;;;;;;5037670;28;20139;-38
2023/01/08 09:20:06;;;;;;;5.85;4.18;;;2.00;99.90;;;;;;5020663;28;20056;-35
2023/01/08 09:22:31;;;;;;;8.40;3.97;;;2.00;99.90;;;;;;5025344;28;20056;-37
2023/01/08 09:24:57;;;;;;;5.75;3.58;;;2.10;99.90;;;;;;5021653;28;20498;-36
2023/01/08 09:27:23;;;;;;;4.18;3.55;;;2.20;99.90;;;;;;5021651;28;20061;-36
2023/01/08 09:29:48;;;;;;;6.20;4.05;;;2.30;99.90;;;;;;5023852;28;20021;-38
2023/01/08 09:32:14;;;;;;;6.55;3.55;;;2.30;99.90;;;;;;5027791;28;20049;-35
2023/01/08 09:34:39;;;;;;;4.00;3.60;;;2.30;99.90;;;;;;5021962;28;20528;-34
2023/01/08 09:37:05;;;;;;;4.47;4.00;;;2.40;99.90;;;;;;5021615;28;20155;-35
2023/01/08 09:39:31;;;;;;;8.13;3.80;;;2.40;99.90;;;;;;5034174;28;20049;-41
2023/01/08 09:42:01;;;;;;;3.90;3.30;;;2.50;99.90;;;;;;5045492;28;20041;-40
2023/01/08 09:44:32;;;;;;;6.30;5.03;;;2.40;99.90;;;;;;5041375;28;20029;-41
2023/01/08 09:46:58;;;;;;;9.90;6.18;;;2.50;99.90;;;;;;5042893;28;20028;-39
2023/01/08 09:49:32;;;;;;;7.78;5.25;;;2.60;99.90;;;;;;5044886;28;20047;-42
2023/01/08 09:51:58;;;;;;;8.25;3.97;;;2.60;99.90;;;;;;5039438;28;20032;-37
2023/01/08 09:54:25;;;;;;;6.55;4.15;;;2.70;99.90;;;;;;5041402;28;20084;-38
2023/01/08 09:56:52;;;;;;;7.70;4.85;;;2.80;99.90;;;;;;5044258;28;20029;-40
2023/01/08 09:59:18;;;;;;;8.40;5.57;;;2.80;99.90;;;;;;5043975;28;20139;-38
2023/01/08 10:01:45;;;;;;;8.55;4.68;;;2.90;99.90;;;;;;5041923;28;20525;-41
2023/01/08 10:04:16;;;;;;;8.98;5.22;;;3.00;99.90;;;;;;5045647;28;20087;-39
2023/01/08 10:06:55;;;;;;;6.55;5.70;;;3.10;99.90;;;;;;5045870;28;20092;-38
2023/01/08 10:09:25;;;;;;;8.23;5.15;;;3.20;99.90;;;;;;5044708;28;20021;-40
2023/01/08 10:11:53;;;;;;;8.82;6.28;;;3.30;99.90;;;;;;5043408;28;20036;-40
2023/01/08 10:14:32;;;;;;;7.93;5.93;;;3.30;99.90;;;;;;5039163;28;20037;-36
2023/01/08 10:17:01;;;;;;;11.60;7.28;;;3.40;99.90;;;;;;5047111;28;20025;-37
2023/01/08 10:19:27;;;;;;;11.55;6.07;;;3.50;99.90;;;;;;5048958;28;20036;-40
2023/01/08 10:21:53;;;;;;;10.88;6.38;;;3.50;99.90;;;;;;5043553;28;20028;-38
2023/01/08 10:24:36;;;;;;;8.57;6.57;;;3.60;99.90;;;;;;5040244;28;20060;-41
2023/01/08 10:27:22;;;;;;;9.32;5.93;;;3.60;99.90;;;;;;5041315;28;20479;-33
2023/01/08 10:29:51;;;;;;;8.35;6.47;;;3.70;99.90;;;;;;5038081;28;20500;-37
2023/01/08 10:32:33;;;;;;;12.45;7.72;;;3.80;99.90;;;;;;5049843;28;20044;-41
2023/01/08 10:35:03;;;;;;;7.47;6.22;;;3.90;99.90;;;;;;5049605;28;20024;-41
2023/01/08 10:37:38;;;;;;;8.73;5.90;;;3.90;99.90;;;;;;5045832;28;20064;-41
2023/01/08 10:40:22;;;;;;;21.38;9.43;;;4.10;99.90;;;;;;5048957;28;20025;-41
2023/01/08 10:42:49;;;;;;;10.13;6.25;;;4.20;99.90;;;;;;5049499;28;20025;-40
2023/01/08 10:45:23;;;;;;;12.90;7.50;;;4.40;99.90;;;;;;5040699;28;20052;-38
2023/01/08 10:47:54;;;;;;;8.48;5.32;;;4.50;99.90;;;;;;5045402;28;20063;-41
2023/01/08 10:50:24;;;;;;;11.45;6.00;;;4.60;99.90;;;;;;5044391;28;20549;-38
2023/01/08 10:52:55;;;;;;;11.00;5.57;;;4.70;99.90;;;;;;5047986;28;20104;-39
2023/01/08 10:55:31;;;;;;;11.15;6.13;;;4.80;99.90;;;;;;5043284;28;20087;-38
2023/01/08 10:58:03;;;;;;;7.80;4.80;;;4.90;99.90;;;;;;5045744;28;20032;-40
2023/01/08 11:00:34;;;;;;;4.80;3.13;;;5.00;99.90;;;;;;5043026;28;20506;-42
2023/01/08 11:03:02;;;;;;;7.28;5.60;;;5.10;99.90;;;;;;5047252;28;20033;-42
2023/01/08 11:05:32;;;;;;;8.20;5.72;;;5.20;99.90;;;;;;5048582;28;20041;-40
2023/01/08 11:08:00;;;;;;;6.78;5.00;;;5.30;99.90;;;;;;5045273;28;20040;-42
2023/01/08 11:10:27;;;;;;;10.30;5.37;;;5.30;99.90;;;;;;5044688;28;20049;-34
2023/01/08 11:12:55;;;;;;;7.13;4.32;;;5.40;99.90;;;;;;5043331;28;20024;-41
2023/01/08 11:15:32;;;;;;;6.50;5.55;;;5.50;99.90;;;;;;5049465;28;20112;-41
2023/01/08 11:18:16;;;;;;;5.70;4.57;;;5.50;99.90;;;;;;5047728;28;20036;-35
2023/01/08 11:20:41;;;;;;;8.73;4.88;;;5.50;99.90;;;;;;5042563;28;20033;-38
2023/01/08 11:23:27;;;;;;;5.78;4.78;;;5.60;99.90;;;;;;5041371;28;20079;-38
2023/01/08 11:26:05;;;;;;;8.23;5.22;;;5.60;99.90;;;;;;5042979;28;20017;-35
2023/01/08 11:29:06;;;;;;;7.38;5.70;;;5.70;99.90;;;;;;5045505;28;20540;-41
2023/01/08 11:31:54;;;;;;;10.57;6.63;;;5.70;99.90;;;;;;5025298;28;20051;-39
2023/01/08 11:34:29;;;;;;;10.10;6.22;;;5.80;99.90;;;;;;5042521;28;20092;-34
2023/01/08 11:37:03;;;;;;;9.73;6.60;;;5.80;99.90;;;;;;5040662;28;20552;-40
2023/01/08 11:39:29;;;;;;;14.55;7.35;;;5.80;99.90;;;;;;5044386;28;20445;-40
2023/01/08 11:42:30;;;;;;;12.55;8.98;;;5.90;99.90;;;;;;5042860;28;20041;-38
2023/01/08 11:45:16;;;;;;;11.68;7.38;;;5.90;99.90;;;;;;5046722;28;20903;-41
2023/01/08 11:47:48;;;;;;;10.48;6.70;;;5.90;99.90;;;;;;5042711;28;20060;-40
2023/01/08 11:50:57;;;;;;;8.95;6.05;;;5.90;99.90;;;;;;5049037;28;20091;-41
2023/01/08 11:53:42;;;;;;;10.82;5.43;;;6.00;99.90;;;;;;5005208;28;20075;-41
2023/01/08 11:56:44;;;;;;;9.88;6.18;;;6.00;99.90;;;;;;5043332;28;20095;-40
2023/01/08 11:59:28;;;;;;;8.20;5.18;;;6.10;99.90;;;;;;5047092;28;20029;-41
2023/01/08 12:02:12;;;;;;;8.30;6.05;;;6.10;99.90;;;;;;5046063;28;20033;-41
2023/01/08 12:04:47;;;;;;;7.38;5.55;;;6.10;99.90;;;;;;5044755;28;20029;-38
2023/01/08 12:07:13;;;;;;;7.18;5.63;;;6.10;99.90;;;;;;5042552;28;20414;-37
2023/01/08 12:09:42;;;;;;;9.48;5.03;;;6.20;99.90;;;;;;5048711;28;20040;-41
2023/01/08 12:12:34;;;;;;;7.30;4.30;;;6.10;99.90;;;;;;5044959;28;20036;-37
2023/01/08 12:15:15;;;;;;;6.18;4.22;;;6.20;99.90;;;;;;5048696;28;20028;-41
2023/01/08 12:18:09;;;;;;;7.55;4.70;;;6.20;99.90;;;;;;5048010;28;20017;-40
2023/01/08 12:20:40;;;;;;;7.95;5.80;;;6.20;99.90;;;;;;5050121;28;20115;-41
2023/01/08 12:23:43;;;;;;;10.48;5.88;;;6.30;99.90;;;;;;5049668;28;20432;-41
2023/01/08 12:26:34;;;;;;;10.18;5.68;;;6.40;99.90;;;;;;5045786;28;20446;-40
2023/01/08 12:29:30;;;;;;;9.07;4.93;;;6.40;99.90;;;;;;5046369;28;20060;-41
2023/01/08 12:32:21;;;;;;;10.85;5.15;;;6.50;99.90;;;;;;5047632;28;20128;-41
2023/01/08 12:34:57;;;;;;;9.07;4.35;;;6.50;99.90;;;;;;5047321;28;21247;-41
2023/01/08 12:37:42;;;;;;;5.68;4.35;;;6.50;99.90;;;;;;5049003;28;20401;-36
2023/01/08 12:40:31;;;;;;;10.18;5.40;;;6.60;99.90;;;;;;5050525;28;20160;-37
2023/01/08 12:42:59;;;;;;;6.47;5.13;;;6.60;99.90;;;;;;5039878;28;20037;-39
2023/01/08 12:45:42;;;;;;;9.23;5.55;;;6.60;99.90;;;;;;5044807;28;20040;-39
2023/01/08 12:48:15;;;;;;;9.98;5.63;;;6.60;99.90;;;;;;5048000;28;20033;-38
2023/01/08 12:50:55;;;;;;;9.88;6.00;;;6.70;99.90;;;;;;5047939;28;20033;-39
2023/01/08 12:53:38;;;;;;;8.40;6.43;;;6.70;99.90;;;;;;5045739;28;20080;-40
2023/01/08 12:56:25;;;;;;;11.18;6.55;;;6.70;99.90;;;;;;5049528;28;20535;-40
2023/01/08 12:59:09;;;;;;;9.98;6.82;;;6.70;99.90;;;;;;5047774;28;20440;-40
2023/01/08 13:01:53;;;;;;;12.73;6.43;;;6.70;99.90;;;;;;5046582;28;20393;-39
2023/01/08 13:04:19;;;;;;;10.02;6.53;;;6.70;99.90;;;;;;5047322;28;20036;-39
2023/01/08 13:06:58;;;;;;;7.85;6.40;;;6.80;99.90;;;;;;5041582;28;20037;-40